Time;durP1;ratioP1;P1;durP2;ratioP2;P2;SDS_P1;SDS_P2;PMS_P1;PMS_P2;Temp;Humidity;BMP_temperature;BMP_pressure;BME280_temperature;BME280_humidity;BME280_pressure;Samples;Min_cycle;Max_cycle;Signal;HPM_P1;HPM_P2
2023/05/15 00:00:11;;;;;;;24.33;16.58;;;12.00;99.90;;;;;;5093535;28;20078;-69
2023/05/15 00:02:38;;;;;;;23.50;16.35;;;;;;;;;;5127650;27;20425;-69
2023/05/15 00:05:07;;;;;;;19.23;15.85;;;11.50;99.90;;;;;;5110674;28;20403;-69
2023/05/15 00:07:33;;;;;;;23.13;15.63;;;;;;;;;;5093365;28;20074;-70
2023/05/15 00:09:59;;;;;;;24.73;18.52;;;;;;;;;;5127632;27;20365;-69
2023/05/15 00:12:25;;;;;;;21.50;17.50;;;;;;;;;;5093438;28;20492;-69
2023/05/15 00:14:51;;;;;;;25.95;17.05;;;;;;;;;;5110455;28;20488;-69
2023/05/15 00:17:18;;;;;;;21.60;17.48;;;;;;;;;;5093379;28;20036;-69
2023/05/15 00:19:44;;;;;;;22.65;17.20;;;;;;;;;;5076191;28;20044;-69
2023/05/15 00:22:10;;;;;;;27.90;18.95;;;;;;;;;;5093072;28;20043;-70
2023/05/15 00:24:36;;;;;;;28.88;18.00;;;;;;;;;;5076255;28;20480;-70
2023/05/15 00:27:03;;;;;;;27.98;18.75;;;;;;;;;;5093337;28;20038;-70
2023/05/15 00:29:29;;;;;;;25.42;18.60;;;;;;;;;;5093052;28;20052;-70
2023/05/15 00:31:55;;;;;;;25.95;18.25;;;;;;;;;;5092723;28;20079;-70
2023/05/15 00:34:22;;;;;;;28.40;19.38;;;;;;;;;;5092759;28;20065;-70
2023/05/15 00:36:48;;;;;;;25.13;19.02;;;;;;;;;;5076229;28;20040;-70
2023/05/15 00:39:14;;;;;;;25.35;19.10;;;;;;;;;;5076020;28;20040;-70
2023/05/15 00:41:41;;;;;;;26.92;19.08;;;;;;;;;;5092736;28;20047;-70
2023/05/15 00:44:07;;;;;;;24.90;18.60;;;;;;;;;;5075917;28;20048;-70
2023/05/15 00:46:35;;;;;;;25.83;18.80;;;11.10;99.90;;;;;;5092874;28;20043;-70
2023/05/15 00:49:02;;;;;;;26.83;18.95;;;;;;;;;;5091578;28;20069;-70
2023/05/15 00:51:28;;;;;;;25.33;18.35;;;;;;;;;;5092503;28;20487;-70
2023/05/15 00:53:55;;;;;;;26.58;20.08;;;;;;;;;;5092563;28;20387;-70
2023/05/15 00:56:21;;;;;;;24.98;19.70;;;;;;;;;;5092324;28;20051;-70
2023/05/15 00:58:49;;;;;;;28.50;20.80;;;11.20;99.90;;;;;;5092402;28;20406;-70
2023/05/15 01:01:16;;;;;;;28.15;19.17;;;;;;;;;;5092424;28;20048;-72
2023/05/15 01:03:45;;;;;;;27.95;20.33;;;;;;;;;;5092383;28;20040;-70
2023/05/15 01:06:11;;;;;;;26.13;20.10;;;;;;;;;;5092670;28;20490;-70
2023/05/15 01:08:38;;;;;;;31.45;20.08;;;;;;;;;;5092710;28;20047;-71
2023/05/15 01:11:05;;;;;;;27.52;20.25;;;;;;;;;;5092194;28;20495;-71
2023/05/15 01:13:31;;;;;;;29.63;20.70;;;;;;;;;;5092238;28;20063;-69
2023/05/15 01:15:57;;;;;;;28.73;20.70;;;10.20;99.90;;;;;;5091979;28;20502;-69
2023/05/15 01:18:30;;;;;;;26.35;21.00;;;;;;;;;;5109431;28;20040;-69
2023/05/15 01:21:08;;;;;;;33.97;25.10;;;;;;;;;;5110325;28;20040;-70
2023/05/15 01:24:06;;;;;;;35.40;24.42;;;10.80;99.90;;;;;;5092452;28;20044;-70
2023/05/15 01:27:10;;;;;;;33.83;23.95;;;10.70;99.90;;;;;;5078244;28;20051;-69
2023/05/15 01:29:39;;;;;;;37.22;25.00;;;;;;;;;;5075463;28;20387;-69
2023/05/15 01:32:14;;;;;;;36.20;23.85;;;;;;;;;;5092088;28;20123;-69
2023/05/15 01:34:52;;;;;;;35.38;24.15;;;10.80;99.90;;;;;;5092147;28;20486;-69
2023/05/15 01:37:20;;;;;;;33.35;22.58;;;;;;;;;;5091980;28;20040;-69
2023/05/15 01:39:48;;;;;;;30.23;22.13;;;;;;;;;;5091995;28;20492;-69
2023/05/15 01:42:17;;;;;;;32.30;20.83;;;10.70;99.90;;;;;;5092011;28;20032;-69
2023/05/15 01:44:45;;;;;;;28.15;19.23;;;;;;;;;;5092115;28;20046;-69
2023/05/15 01:47:19;;;;;;;26.00;18.67;;;10.70;99.90;;;;;;5075097;28;20097;-69
2023/05/15 01:49:48;;;;;;;30.33;19.17;;;10.80;99.90;;;;;;5093325;28;20519;-69
2023/05/15 01:52:17;;;;;;;29.02;17.92;;;;;;;;;;5093096;28;20040;-69
2023/05/15 01:54:44;;;;;;;28.65;18.83;;;10.80;99.90;;;;;;5091689;28;20040;-71
2023/05/15 01:57:11;;;;;;;27.02;18.17;;;;;;;;;;5091679;28;20052;-70
2023/05/15 01:59:38;;;;;;;28.98;18.55;;;10.80;99.90;;;;;;5075919;28;20039;-69
2023/05/15 02:02:04;;;;;;;28.65;19.08;;;;;;;;;;5095727;28;20047;-70
2023/05/15 02:04:32;;;;;;;29.27;18.45;;;10.70;99.90;;;;;;5096006;28;20074;-68
2023/05/15 02:07:00;;;;;;;22.40;16.80;;;10.70;99.90;;;;;;5079016;28;20514;-70
2023/05/15 02:09:27;;;;;;;24.38;17.20;;;10.90;99.90;;;;;;5095784;28;20122;-71
2023/05/15 02:11:53;;;;;;;26.20;17.65;;;;;;;;;;5095783;28;20040;-69
2023/05/15 02:14:20;;;;;;;24.20;17.48;;;;;;;;;;5096697;28;20523;-69
2023/05/15 02:16:46;;;;;;;25.98;18.05;;;;;;;;;;5112630;28;20048;-69
2023/05/15 02:19:12;;;;;;;23.85;18.02;;;;;;;;;;5095598;28;20040;-69
2023/05/15 02:21:38;;;;;;;22.73;17.70;;;;;;;;;;5095291;28;20050;-69
2023/05/15 02:24:04;;;;;;;24.05;17.35;;;;;;;;;;5095499;28;20040;-69
2023/05/15 02:26:48;;;;;;;24.67;16.83;;;11.00;99.90;;;;;;5095306;28;20040;-69
2023/05/15 02:29:24;;;;;;;22.38;16.80;;;;;;;;;;5095182;28;20495;-69
2023/05/15 02:32:05;;;;;;;23.48;17.27;;;11.30;99.90;;;;;;5095113;28;20459;-69
2023/05/15 02:34:31;;;;;;;25.17;17.33;;;;;;;;;;5095062;28;20051;-69
2023/05/15 02:36:58;;;;;;;22.33;16.58;;;;;;;;;;5095070;28;20036;-69
2023/05/15 02:39:24;;;;;;;23.88;17.02;;;;;;;;;;5095295;28;20093;-69
2023/05/15 02:41:51;;;;;;;27.20;17.17;;;10.00;99.90;;;;;;5094965;28;20499;-69
2023/05/15 02:44:18;;;;;;;24.27;16.65;;;;;;;;;;5095344;28;20040;-69
2023/05/15 02:46:44;;;;;;;27.92;18.67;;;;;;;;;;5095014;28;20046;-69
2023/05/15 02:49:11;;;;;;;24.95;17.83;;;11.00;99.90;;;;;;5094888;28;20032;-70
2023/05/15 02:51:37;;;;;;;24.52;17.33;;;;;;;;;;5094648;28;20044;-70
2023/05/15 02:54:03;;;;;;;21.33;16.73;;;;;;;;;;5094829;28;20040;-69
2023/05/15 02:56:29;;;;;;;23.40;17.48;;;;;;;;;;5094575;28;20051;-70
2023/05/15 02:58:55;;;;;;;23.52;16.27;;;;;;;;;;5095050;28;20067;-70
2023/05/15 03:01:22;;;;;;;24.85;17.35;;;;;;;;;;5094658;28;20040;-70
2023/05/15 03:03:48;;;;;;;25.52;17.08;;;;;;;;;;5077681;28;20047;-70
2023/05/15 03:06:14;;;;;;;26.17;17.88;;;;;;;;;;5094655;28;20055;-70
2023/05/15 03:08:40;;;;;;;24.95;17.88;;;;;;;;;;5111836;27;20043;-70
2023/05/15 03:11:06;;;;;;;25.33;18.20;;;;;;;;;;5110391;28;20047;-70
2023/05/15 03:13:32;;;;;;;28.13;18.33;;;;;;;;;;5094289;28;20536;-70
2023/05/15 03:15:58;;;;;;;30.88;19.02;;;;;;;;;;5111251;28;20111;-70
2023/05/15 03:18:24;;;;;;;25.90;18.65;;;;;;;;;;5094293;28;20086;-70
2023/05/15 03:20:51;;;;;;;29.30;18.33;;;10.70;99.90;;;;;;5094284;28;20483;-70
2023/05/15 03:23:17;;;;;;;25.20;18.85;;;;;;;;;;5094678;28;20035;-70
2023/05/15 03:25:43;;;;;;;29.63;19.08;;;;;;;;;;5128410;27;20040;-70
2023/05/15 03:28:10;;;;;;;28.02;18.90;;;;;;;;;;5094227;28;20044;-70
2023/05/15 03:30:36;;;;;;;26.70;18.40;;;;;;;;;;5094078;28;20050;-70
2023/05/15 03:33:02;;;;;;;30.15;18.90;;;;;;;;;;5094263;28;20048;-69
2023/05/15 03:35:31;;;;;;;27.52;17.73;;;9.60;99.90;;;;;;5094002;28;20088;-70
2023/05/15 03:37:57;;;;;;;24.60;18.55;;;;;;;;;;5093892;28;20526;-70
2023/05/15 03:40:23;;;;;;;24.67;18.38;;;;;;;;;;5111023;28;20089;-70
2023/05/15 03:42:52;;;;;;;27.02;18.13;;;;;;;;;;5094370;28;20040;-70
2023/05/15 03:45:18;;;;;;;25.40;17.88;;;;;;;;;;5093704;28;20077;-70
2023/05/15 03:47:45;;;;;;;21.40;16.77;;;;;;;;;;5127989;27;20492;-70
2023/05/15 03:50:11;;;;;;;23.42;16.83;;;;;;;;;;5093710;28;20036;-70
2023/05/15 03:52:37;;;;;;;26.08;17.98;;;;;;;;;;5076867;28;20036;-70
2023/05/15 03:55:03;;;;;;;22.63;17.00;;;;;;;;;;5093592;28;20040;-70
2023/05/15 03:57:31;;;;;;;23.63;16.67;;;;;;;;;;5093347;28;20087;-70
2023/05/15 03:59:57;;;;;;;23.17;16.95;;;;;;;;;;5076829;28;20147;-70
2023/05/15 04:02:23;;;;;;;30.55;17.50;;;;;;;;;;5076725;28;20328;-70
2023/05/15 04:04:50;;;;;;;23.58;16.33;;;;;;;;;;5093466;28;20040;-70
2023/05/15 04:07:16;;;;;;;24.65;17.27;;;;;;;;;;5076570;28;20085;-70
2023/05/15 04:09:42;;;;;;;23.80;16.90;;;;;;;;;;5093700;28;20036;-70
2023/05/15 04:12:08;;;;;;;21.90;16.42;;;;;;;;;;5093387;28;20044;-70
2023/05/15 04:14:34;;;;;;;22.67;16.38;;;;;;;;;;5093448;28;20062;-70
2023/05/15 04:17:00;;;;;;;23.25;16.77;;;;;;;;;;5093362;28;20126;-70
2023/05/15 04:19:27;;;;;;;22.42;17.70;;;;;;;;;;5093374;28;20032;-70
2023/05/15 04:21:53;;;;;;;24.85;17.88;;;;;;;;;;5110105;28;20032;-70
2023/05/15 04:24:19;;;;;;;21.73;17.30;;;;;;;;;;5092875;28;20039;-70
2023/05/15 04:26:45;;;;;;;21.95;16.65;;;;;;;;;;5076157;28;20072;-70
2023/05/15 04:29:11;;;;;;;24.10;17.48;;;;;;;;;;5076307;28;20464;-70
2023/05/15 04:31:37;;;;;;;23.40;17.15;;;;;;;;;;5075920;28;20044;-70
2023/05/15 04:34:04;;;;;;;22.52;16.58;;;;;;;;;;5093159;28;20032;-70
2023/05/15 04:36:30;;;;;;;22.85;17.48;;;;;;;;;;5092678;28;20040;-70
2023/05/15 04:38:56;;;;;;;25.30;17.35;;;;;;;;;;5076152;28;20044;-70
2023/05/15 04:41:22;;;;;;;22.77;17.85;;;;;;;;;;5092904;28;20435;-70
2023/05/15 04:43:48;;;;;;;25.20;17.65;;;;;;;;;;5092976;28;20044;-70
2023/05/15 04:46:15;;;;;;;24.60;17.48;;;;;;;;;;5092601;28;20044;-70
2023/05/15 04:48:41;;;;;;;24.35;17.27;;;;;;;;;;5109935;28;20512;-70
2023/05/15 04:51:07;;;;;;;22.58;16.85;;;;;;;;;;5092473;28;20040;-70
2023/05/15 04:53:33;;;;;;;24.48;17.90;;;;;;;;;;5092644;28;20085;-70
2023/05/15 04:55:59;;;;;;;24.00;17.10;;;;;;;;;;5092367;28;20075;-70
2023/05/15 04:58:25;;;;;;;23.88;17.60;;;;;;;;;;5092231;28;20135;-70
2023/05/15 05:00:51;;;;;;;22.02;16.95;;;;;;;;;;5075877;28;20112;-70
2023/05/15 05:03:17;;;;;;;25.38;18.55;;;;;;;;;;5092442;28;20507;-70
2023/05/15 05:05:43;;;;;;;26.25;17.75;;;;;;;;;;5092637;28;20389;-70
2023/05/15 05:08:09;;;;;;;21.85;16.98;;;;;;;;;;5092669;28;20181;-70
2023/05/15 05:10:35;;;;;;;23.92;16.30;;;;;;;;;;5092363;28;20081;-70
2023/05/15 05:13:01;;;;;;;24.88;17.60;;;;;;;;;;5092237;28;20052;-70
2023/05/15 05:15:27;;;;;;;24.85;17.83;;;9.80;99.90;;;;;;5075627;28;20484;-70
2023/05/15 05:17:53;;;;;;;21.35;17.17;;;;;;;;;;5075727;28;20047;-70
2023/05/15 05:20:19;;;;;;;25.80;18.23;;;;;;;;;;5092211;28;20044;-69
2023/05/15 05:22:45;;;;;;;23.75;17.52;;;;;;;;;;5091958;28;20044;-69
2023/05/15 05:25:12;;;;;;;27.98;18.33;;;;;;;;;;5092358;28;20048;-70
2023/05/15 05:27:38;;;;;;;26.35;18.80;;;;;;;;;;5075207;28;20040;-70
2023/05/15 05:30:04;;;;;;;29.05;19.15;;;12.10;99.90;;;;;;5091929;28;20047;-70
2023/05/15 05:32:30;;;;;;;23.67;18.88;;;;;;;;;;5092090;28;20071;-70
2023/05/15 05:34:56;;;;;;;25.23;18.27;;;;;;;;;;5093523;28;20485;-70
2023/05/15 05:37:22;;;;;;;23.30;17.55;;;;;;;;;;5096714;28;20392;-70
2023/05/15 05:39:48;;;;;;;27.15;18.75;;;;;;;;;;5096468;28;20084;-70
2023/05/15 05:42:14;;;;;;;26.33;18.35;;;;;;;;;;5096094;28;20541;-70
2023/05/15 05:44:40;;;;;;;25.67;18.38;;;;;;;;;;5096266;28;20145;-70
2023/05/15 05:47:07;;;;;;;25.52;19.15;;;;;;;;;;5095870;28;20044;-70
2023/05/15 05:49:33;;;;;;;28.15;19.15;;;;;;;;;;5096057;28;20502;-70
2023/05/15 05:52:06;;;;;;;28.10;19.27;;;11.40;99.90;;;;;;5096104;27;20044;-70
2023/05/15 05:54:32;;;;;;;23.92;19.30;;;;;;;;;;5095916;28;20047;-70
2023/05/15 05:56:58;;;;;;;26.92;20.13;;;;;;;;;;5095526;28;20059;-70
2023/05/15 05:59:24;;;;;;;28.63;20.27;;;;;;;;;;5095645;28;20483;-70
2023/05/15 06:01:50;;;;;;;26.77;20.63;;;;;;;;;;5095682;28;20547;-70
2023/05/15 06:04:16;;;;;;;22.90;19.08;;;;;;;;;;5129998;27;20086;-70
2023/05/15 06:06:42;;;;;;;25.55;17.42;;;;;;;;;;5095753;28;20040;-70
2023/05/15 06:09:09;;;;;;;24.52;18.17;;;;;;;;;;5112612;27;20040;-70
2023/05/15 06:11:35;;;;;;;24.08;18.17;;;;;;;;;;5095554;28;20051;-70
2023/05/15 06:14:01;;;;;;;22.52;18.48;;;;;;;;;;5095520;28;20035;-70
2023/05/15 06:16:27;;;;;;;23.02;17.33;;;;;;;;;;5095516;28;20131;-70
2023/05/15 06:18:53;;;;;;;23.17;15.95;;;;;;;;;;5095516;28;20032;-70
2023/05/15 06:21:21;;;;;;;18.30;15.18;;;;;;;;;;5112472;27;20127;-70
2023/05/15 06:23:47;;;;;;;14.57;12.32;;;;;;;;;;5096527;28;20051;-70
2023/05/15 06:26:13;;;;;;;18.08;13.45;;;;;;;;;;5095265;28;20077;-70
2023/05/15 06:28:39;;;;;;;13.20;11.85;;;;;;;;;;5095130;28;20123;-70
2023/05/15 06:31:05;;;;;;;15.00;10.63;;;;;;;;;;5095323;28;20493;-70
2023/05/15 06:33:31;;;;;;;20.95;12.13;;;;;;;;;;5078283;28;20046;-70
2023/05/15 06:35:57;;;;;;;16.08;13.27;;;;;;;;;;5112296;28;20170;-70
2023/05/15 06:38:23;;;;;;;16.50;12.27;;;;;;;;;;5095188;28;20036;-70
2023/05/15 06:40:49;;;;;;;13.88;11.00;;;;;;;;;;5095117;28;20042;-70
2023/05/15 06:43:15;;;;;;;11.82;10.02;;;;;;;;;;5112157;27;20043;-70
2023/05/15 06:45:41;;;;;;;14.68;10.63;;;;;;;;;;5094867;28;20040;-70
2023/05/15 06:48:07;;;;;;;13.32;9.90;;;;;;;;;;5078123;28;20483;-70
2023/05/15 06:50:34;;;;;;;14.98;11.57;;;;;;;;;;5094853;28;20043;-70
2023/05/15 06:53:00;;;;;;;15.75;11.32;;;;;;;;;;5094864;28;20040;-70
2023/05/15 06:55:26;;;;;;;15.98;13.10;;;;;;;;;;5094807;28;20083;-70
2023/05/15 06:57:52;;;;;;;18.58;14.15;;;;;;;;;;5077760;28;20055;-70
2023/05/15 07:00:18;;;;;;;16.65;12.15;;;;;;;;;;5094666;28;20048;-70
2023/05/15 07:02:44;;;;;;;16.42;14.10;;;;;;;;;;5111901;28;20040;-70
2023/05/15 07:05:10;;;;;;;12.40;10.60;;;;;;;;;;5094461;28;20562;-70
2023/05/15 07:07:36;;;;;;;14.73;11.57;;;;;;;;;;5094482;28;20040;-70
2023/05/15 07:10:02;;;;;;;13.13;11.75;;;;;;;;;;5094695;28;20407;-70
2023/05/15 07:12:28;;;;;;;18.42;12.35;;;;;;;;;;5094720;28;20097;-70
2023/05/15 07:14:54;;;;;;;17.42;12.43;;;;;;;;;;5094342;28;20499;-70
2023/05/15 07:17:21;;;;;;;14.57;12.18;;;;;;;;;;5094532;28;20492;-70
2023/05/15 07:19:47;;;;;;;14.90;11.13;;;;;;;;;;5094706;28;20124;-70
2023/05/15 07:22:13;;;;;;;15.18;11.82;;;;;;;;;;5111409;27;20036;-71
2023/05/15 07:24:38;;;;;;;16.63;12.18;;;12.70;99.90;;;;;;5094154;28;20068;-70
2023/05/15 07:27:04;;;;;;;17.70;13.32;;;12.10;99.90;;;;;;5094087;28;20063;-70
2023/05/15 07:29:30;;;;;;;17.23;13.25;;;;;;;;;;5077388;28;20094;-70
2023/05/15 07:31:56;;;;;;;18.00;14.63;;;;;;;;;;5094209;28;20122;-70
2023/05/15 07:34:22;;;;;;;16.45;12.80;;;;;;;;;;5095424;28;20434;-70
2023/05/15 07:36:48;;;;;;;15.23;13.43;;;;;;;;;;5076929;28;20079;-70
2023/05/15 07:39:14;;;;;;;16.17;12.95;;;;;;;;;;5093877;28;20032;-70
2023/05/15 07:41:41;;;;;;;16.48;13.27;;;;;;;;;;5093834;28;20472;-70
2023/05/15 07:44:07;;;;;;;16.35;12.82;;;;;;;;;;5094165;28;20032;-70
2023/05/15 07:46:33;;;;;;;20.65;15.45;;;;;;;;;;5077128;28;20048;-70
2023/05/15 07:48:59;;;;;;;20.98;15.30;;;;;;;;;;5093706;28;20040;-70
2023/05/15 07:51:25;;;;;;;19.30;14.60;;;;;;;;;;5110806;28;20123;-69
2023/05/15 07:53:51;;;;;;;18.35;14.38;;;;;;;;;;5093670;28;20476;-70
2023/05/15 07:56:17;;;;;;;18.63;13.48;;;;;;;;;;5076677;28;20051;-70
2023/05/15 07:58:43;;;;;;;16.45;11.88;;;;;;;;;;5127026;27;20483;-70
2023/05/15 08:01:10;;;;;;;15.77;13.13;;;;;;;;;;5093594;28;20032;-70
2023/05/15 08:03:36;;;;;;;18.42;13.80;;;;;;;;;;5094154;28;20044;-70
2023/05/15 08:06:02;;;;;;;14.95;12.27;;;;;;;;;;5093809;28;20051;-70
2023/05/15 08:08:28;;;;;;;20.73;13.05;;;;;;;;;;5110750;28;20101;-70
2023/05/15 08:10:54;;;;;;;17.27;11.57;;;;;;;;;;5093368;28;20040;-70
2023/05/15 08:13:20;;;;;;;12.70;10.18;;;;;;;;;;5093540;28;20445;-70
2023/05/15 08:15:46;;;;;;;14.30;10.95;;;;;;;;;;5093146;28;20047;-70
2023/05/15 08:18:12;;;;;;;17.52;12.38;;;;;;;;;;5093294;28;20089;-70
2023/05/15 08:20:38;;;;;;;12.48;10.88;;;;;;;;;;5093176;28;20554;-70
2023/05/15 08:23:04;;;;;;;15.60;10.95;;;;;;;;;;5076556;28;20090;-70
2023/05/15 08:25:30;;;;;;;14.57;11.20;;;;;;;;;;5093053;28;20052;-70
2023/05/15 08:27:56;;;;;;;14.48;11.95;;;;;;;;;;5092941;28;20073;-70
2023/05/15 08:30:22;;;;;;;13.77;11.32;;;;;;;;;;5076209;28;20043;-70
2023/05/15 08:32:49;;;;;;;14.60;11.35;;;;;;;;;;5094131;28;20051;-70
2023/05/15 08:35:15;;;;;;;18.50;11.02;;;;;;;;;;5075911;28;20055;-70
2023/05/15 08:37:40;;;;;;;14.32;10.00;;;14.30;99.90;;;;;;5092791;28;20085;-70
2023/05/15 08:40:08;;;;;;;15.50;10.85;;;;;;;;;;5092639;28;20119;-70
2023/05/15 08:42:42;;;;;;;14.98;10.30;;;14.50;99.90;;;;;;5092668;28;20040;-70
2023/05/15 08:45:08;;;;;;;12.00;9.25;;;13.90;99.90;;;;;;5092591;28;20044;-70
2023/05/15 08:47:36;;;;;;;14.75;9.73;;;;;;;;;;5092839;28;20051;-70
2023/05/15 08:50:14;;;;;;;12.63;10.35;;;14.50;99.90;;;;;;5092789;28;20051;-70
2023/05/15 08:52:47;;;;;;;16.00;10.20;;;13.70;99.90;;;;;;5092474;28;20540;-70
2023/05/15 08:55:13;;;;;;;14.55;10.27;;;;;;;;;;5092690;28;20122;-70
2023/05/15 08:57:40;;;;;;;13.27;9.55;;;;;;;;;;5092380;28;20054;-70
2023/05/15 09:00:07;;;;;;;11.98;9.38;;;;;;;;;;5092506;28;20090;-70
2023/05/15 09:02:38;;;;;;;13.32;9.50;;;14.00;99.90;;;;;;5092408;28;20119;-70
2023/05/15 09:05:08;;;;;;;14.57;9.48;;;;;;;;;;5092697;28;20043;-70
2023/05/15 09:07:34;;;;;;;14.48;9.70;;;;;;;;;;5092379;28;20051;-70
2023/05/15 09:10:02;;;;;;;12.88;9.90;;;13.90;99.90;;;;;;5091418;28;20054;-70
2023/05/15 09:12:32;;;;;;;13.38;11.07;;;13.80;99.90;;;;;;5092443;28;20043;-70
2023/05/15 09:15:20;;;;;;;16.92;10.98;;;14.10;99.90;;;;;;5091985;28;20502;-70
2023/05/15 09:17:47;;;;;;;16.98;10.40;;;;;;;;;;5059067;28;20119;-70
2023/05/15 09:20:25;;;;;;;14.75;11.55;;;13.50;99.90;;;;;;5092226;28;20079;-70
2023/05/15 09:22:51;;;;;;;16.27;10.90;;;14.90;99.90;;;;;;5092063;28;20488;-70
2023/05/15 09:25:41;;;;;;;14.10;11.60;;;14.00;99.90;;;;;;5092321;28;20051;-70
2023/05/15 09:28:26;;;;;;;13.43;11.05;;;14.10;99.90;;;;;;5092266;28;20044;-70
2023/05/15 09:31:10;;;;;;;14.77;10.80;;;14.00;99.90;;;;;;5091953;28;20078;-70
2023/05/15 09:33:41;;;;;;;20.48;11.20;;;13.80;99.90;;;;;;5092218;28;20074;-70
2023/05/15 09:36:07;;;;;;;15.13;11.68;;;12.90;99.90;;;;;;5091954;28;20040;-70
2023/05/15 09:38:38;;;;;;;15.02;11.48;;;14.00;99.90;;;;;;5091934;28;20040;-70
2023/05/15 09:41:05;;;;;;;17.33;11.80;;;13.00;99.90;;;;;;5092360;28;20044;-70
2023/05/15 09:43:37;;;;;;;15.20;11.90;;;15.20;99.90;;;;;;5092142;28;20071;-70
2023/05/15 09:46:03;;;;;;;16.30;12.13;;;14.50;99.90;;;;;;5091898;28;20040;-70
2023/05/15 09:48:30;;;;;;;15.18;11.63;;;;;;;;;;5091828;28;20123;-70
2023/05/15 09:50:56;;;;;;;13.30;11.70;;;;;;;;;;5091913;28;20044;-70
2023/05/15 09:53:23;;;;;;;12.13;10.52;;;;;;;;;;5074819;28;20499;-70
2023/05/15 09:55:49;;;;;;;14.50;10.48;;;15.30;99.90;;;;;;5091641;28;20079;-70
2023/05/15 09:58:17;;;;;;;17.38;10.63;;;14.70;99.90;;;;;;5091666;28;20052;-69
2023/05/15 10:00:44;;;;;;;12.77;8.75;;;14.80;99.90;;;;;;5091687;28;20048;-70
2023/05/15 10:03:10;;;;;;;10.73;8.68;;;14.90;99.90;;;;;;5091713;28;20044;-70
2023/05/15 10:05:37;;;;;;;10.85;8.52;;;;;;;;;;5091748;28;20078;-70
2023/05/15 10:08:03;;;;;;;12.43;8.82;;;;;;;;;;5091750;28;20051;-70
2023/05/15 10:10:30;;;;;;;13.85;9.02;;;;;;;;;;5091901;28;20051;-70
2023/05/15 10:13:02;;;;;;;12.40;8.75;;;;;;;;;;5091848;28;20083;-70
2023/05/15 10:15:28;;;;;;;13.48;8.60;;;;;;;;;;5091679;28;20078;-70
2023/05/15 10:17:54;;;;;;;12.77;9.13;;;;;;;;;;5093189;28;20072;-70
2023/05/15 10:20:24;;;;;;;14.43;8.57;;;14.10;99.90;;;;;;5092808;28;20117;-70
2023/05/15 10:22:57;;;;;;;9.57;7.55;;;14.30;99.90;;;;;;5078307;28;20044;-70
2023/05/15 10:25:31;;;;;;;10.02;7.45;;;14.20;99.90;;;;;;5095331;28;20054;-70
2023/05/15 10:27:57;;;;;;;12.40;8.20;;;;;;;;;;5078588;28;20048;-69
2023/05/15 10:30:24;;;;;;;9.85;7.65;;;;;;;;;;5078369;28;20044;-70
2023/05/15 10:32:50;;;;;;;12.32;7.85;;;;;;;;;;5095526;28;20142;-69
2023/05/15 10:35:17;;;;;;;10.15;7.63;;;;;;;;;;5095454;28;20044;-69
2023/05/15 10:37:46;;;;;;;10.90;7.63;;;14.50;99.90;;;;;;5095654;28;20532;-69
2023/05/15 10:40:12;;;;;;;12.98;8.10;;;;;;;;;;5095423;28;20434;-69
2023/05/15 10:42:41;;;;;;;13.25;7.90;;;14.50;99.90;;;;;;5095312;28;20044;-70
2023/05/15 10:45:09;;;;;;;9.82;7.30;;;14.50;99.90;;;;;;5094881;28;20065;-70
2023/05/15 10:47:37;;;;;;;8.68;6.63;;;14.40;99.90;;;;;;5078059;28;20047;-70
2023/05/15 10:50:03;;;;;;;7.72;6.70;;;14.30;99.90;;;;;;5095271;28;20495;-69
2023/05/15 10:52:32;;;;;;;9.23;6.90;;;14.60;99.90;;;;;;5078112;28;20159;-70
2023/05/15 10:54:58;;;;;;;9.88;6.40;;;;;;;;;;5095845;28;20128;-70
2023/05/15 10:57:24;;;;;;;11.40;5.85;;;;;;;;;;5094682;28;20063;-70
2023/05/15 10:59:51;;;;;;;11.40;6.75;;;;;;;;;;5094636;28;20043;-69
2023/05/15 11:02:22;;;;;;;11.23;7.05;;;14.60;99.90;;;;;;5094565;28;20491;-69
2023/05/15 11:04:56;;;;;;;9.67;6.90;;;14.20;99.90;;;;;;5094801;28;20028;-69
2023/05/15 11:07:25;;;;;;;10.55;7.63;;;14.60;99.90;;;;;;5094385;28;20480;-69
2023/05/15 11:09:55;;;;;;;8.45;7.10;;;14.60;99.90;;;;;;5094487;28;20036;-69
2023/05/15 11:12:22;;;;;;;9.20;7.93;;;14.40;99.90;;;;;;5094563;28;20086;-69
2023/05/15 11:14:50;;;;;;;10.90;8.07;;;14.30;99.90;;;;;;5094453;28;20040;-69
2023/05/15 11:17:17;;;;;;;9.38;7.47;;;;;;;;;;5094335;28;20093;-69
2023/05/15 11:19:48;;;;;;;10.77;7.60;;;13.10;99.90;;;;;;5077690;28;20093;-69
2023/05/15 11:22:22;;;;;;;12.65;8.18;;;;;;;;;;5094237;28;20072;-69
2023/05/15 11:24:51;;;;;;;10.88;8.13;;;;;;;;;;5094254;28;20130;-69
2023/05/15 11:27:24;;;;;;;11.48;8.65;;;14.70;99.90;;;;;;5094356;28;20039;-69
2023/05/15 11:30:09;;;;;;;16.92;9.50;;;14.00;99.90;;;;;;5093996;28;20038;-70
2023/05/15 11:32:46;;;;;;;11.63;9.13;;;14.30;99.90;;;;;;5093038;28;20480;-69
2023/05/15 11:35:29;;;;;;;12.07;9.65;;;14.50;99.90;;;;;;5077048;28;20044;-69
2023/05/15 11:38:03;;;;;;;12.10;9.73;;;14.10;99.90;;;;;;5094106;28;20106;-69
2023/05/15 11:40:31;;;;;;;13.63;10.38;;;;;;;;;;5093809;28;20564;-69
2023/05/15 11:43:02;;;;;;;11.98;10.10;;;14.30;99.90;;;;;;5093829;28;20123;-69
2023/05/15 11:45:35;;;;;;;16.23;12.20;;;14.50;99.90;;;;;;5076988;28;20048;-69
2023/05/15 11:48:02;;;;;;;12.73;10.95;;;14.30;99.90;;;;;;5094235;28;20188;-69
2023/05/15 11:50:33;;;;;;;14.10;10.75;;;14.50;99.90;;;;;;5076800;28;20122;-69
2023/05/15 11:53:04;;;;;;;17.55;11.77;;;14.50;99.90;;;;;;5093712;28;20044;-69
2023/05/15 11:55:32;;;;;;;14.27;11.45;;;14.40;99.90;;;;;;5093624;28;20109;-69
2023/05/15 11:57:58;;;;;;;12.55;11.23;;;;;;;;;;5093481;28;20083;-69
2023/05/15 12:00:24;;;;;;;14.43;11.55;;;;;;;;;;5076721;28;20046;-69
2023/05/15 12:02:50;;;;;;;16.42;11.88;;;;;;;;;;5077132;28;20384;-69
2023/05/15 12:05:16;;;;;;;14.30;10.85;;;;;;;;;;5093711;28;20086;-69
2023/05/15 12:07:43;;;;;;;13.45;10.65;;;;;;;;;;5093365;28;20040;-69
2023/05/15 12:10:10;;;;;;;11.65;10.40;;;13.70;99.90;;;;;;5076631;28;20159;-69
2023/05/15 12:12:40;;;;;;;14.77;10.95;;;14.40;99.90;;;;;;5093558;28;20044;-69
2023/05/15 12:15:11;;;;;;;15.07;11.23;;;15.20;99.90;;;;;;5093210;28;20042;-69
2023/05/15 12:17:38;;;;;;;14.30;10.57;;;14.30;99.90;;;;;;5093482;28;20369;-69
2023/05/15 12:20:13;;;;;;;13.20;9.63;;;14.50;99.90;;;;;;5127618;27;20362;-69
2023/05/15 12:22:40;;;;;;;12.07;9.90;;;;;;;;;;5093182;28;20051;-69
2023/05/15 12:25:07;;;;;;;13.20;9.82;;;;;;;;;;5093038;28;20036;-69
2023/05/15 12:27:37;;;;;;;13.50;10.13;;;14.10;99.90;;;;;;5093067;28;20391;-69
2023/05/15 12:30:04;;;;;;;16.58;10.45;;;14.20;99.90;;;;;;5093157;28;20104;-69
2023/05/15 12:32:35;;;;;;;12.95;9.93;;;14.30;99.90;;;;;;5092902;28;20487;-69
2023/05/15 12:35:02;;;;;;;11.13;9.13;;;14.40;99.90;;;;;;5092714;28;20500;-69
2023/05/15 12:37:34;;;;;;;12.77;10.00;;;13.10;99.90;;;;;;5076316;28;20066;-70
2023/05/15 12:40:11;;;;;;;12.23;9.63;;;14.20;99.90;;;;;;5092981;28;20075;-69
2023/05/15 12:42:39;;;;;;;16.25;10.27;;;14.10;99.90;;;;;;5092783;28;20202;-69
2023/05/15 12:45:12;;;;;;;12.00;9.20;;;14.30;99.90;;;;;;5076122;28;20036;-69
2023/05/15 12:47:38;;;;;;;13.15;9.45;;;;;;;;;;5075764;28;20047;-69
2023/05/15 12:50:17;;;;;;;12.15;9.25;;;;;;;;;;5092923;28;20368;-69
2023/05/15 12:52:53;;;;;;;13.52;10.13;;;15.30;99.90;;;;;;5092546;28;20047;-69
2023/05/15 12:55:25;;;;;;;11.55;9.10;;;14.30;99.90;;;;;;5092922;28;20510;-69
2023/05/15 12:57:53;;;;;;;12.55;8.77;;;13.40;99.90;;;;;;5075581;28;20065;-69
2023/05/15 13:00:21;;;;;;;11.38;8.80;;;14.30;99.90;;;;;;5092546;28;20044;-69
2023/05/15 13:02:52;;;;;;;9.35;7.03;;;14.30;99.90;;;;;;5075811;28;20070;-69
2023/05/15 13:05:18;;;;;;;10.20;7.53;;;13.80;99.90;;;;;;5092396;28;20048;-69
2023/05/15 13:07:44;;;;;;;8.45;7.40;;;13.70;99.90;;;;;;5092256;28;20043;-69
2023/05/15 13:10:11;;;;;;;10.80;8.43;;;14.40;99.90;;;;;;5075433;28;20044;-69
2023/05/15 13:12:44;;;;;;;9.93;7.55;;;14.30;99.90;;;;;;5059099;28;20044;-69
2023/05/15 13:15:32;;;;;;;8.10;7.22;;;14.20;99.90;;;;;;5076404;28;20070;-69
2023/05/15 13:18:03;;;;;;;10.88;7.35;;;13.40;99.90;;;;;;5092204;28;20093;-70
2023/05/15 13:20:32;;;;;;;9.38;7.20;;;13.90;99.90;;;;;;5092170;28;20102;-69
2023/05/15 13:23:00;;;;;;;7.78;6.85;;;;;;;;;;5092199;28;20118;-69
2023/05/15 13:25:26;;;;;;;7.95;6.57;;;;;;;;;;5092411;28;20079;-69
2023/05/15 13:27:52;;;;;;;9.25;7.03;;;;;;;;;;5093369;28;20040;-69
2023/05/15 13:30:18;;;;;;;8.50;7.60;;;;;;;;;;5075124;28;20122;-69
2023/05/15 13:32:44;;;;;;;8.40;7.18;;;15.10;99.90;;;;;;5092174;28;20036;-69
2023/05/15 13:35:10;;;;;;;8.23;7.15;;;;;;;;;;5092096;28;20090;-69
2023/05/15 13:37:37;;;;;;;9.23;7.35;;;15.20;99.90;;;;;;5092147;28;20121;-69
2023/05/15 13:40:08;;;;;;;11.05;7.57;;;14.30;99.90;;;;;;5091907;28;20545;-69
2023/05/15 13:42:35;;;;;;;11.15;8.30;;;;;;;;;;5059215;28;20044;-69
2023/05/15 13:45:02;;;;;;;9.75;8.68;;;14.50;99.90;;;;;;5092595;28;20094;-69